sensor_id;sensor_type;location;lat;lon;timestamp;P1;durP1;ratioP1;P2;durP2;ratioP2
17510;SDS011;8873;48.818;9.422;2022-08-20T00:02:24;18.20;;;12.45;;
17510;SDS011;8873;48.818;9.422;2022-08-20T00:04:52;19.63;;;12.63;;
17510;SDS011;8873;48.818;9.422;2022-08-20T00:07:19;20.70;;;11.73;;
17510;SDS011;8873;48.818;9.422;2022-08-20T00:09:48;16.75;;;11.13;;
17510;SDS011;8873;48.818;9.422;2022-08-20T00:12:16;13.90;;;10.07;;
17510;SDS011;8873;48.818;9.422;2022-08-20T00:14:43;15.05;;;9.68;;
17510;SDS011;8873;48.818;9.422;2022-08-20T00:17:11;17.88;;;9.25;;
17510;SDS011;8873;48.818;9.422;2022-08-20T00:19:40;12.35;;;8.93;;
17510;SDS011;8873;48.818;9.422;2022-08-20T00:22:08;14.13;;;8.77;;
17510;SDS011;8873;48.818;9.422;2022-08-20T00:24:35;12.27;;;8.38;;
17510;SDS011;8873;48.818;9.422;2022-08-20T00:27:03;10.13;;;7.70;;
17510;SDS011;8873;48.818;9.422;2022-08-20T00:29:31;14.05;;;8.55;;
17510;SDS011;8873;48.818;9.422;2022-08-20T00:31:59;10.75;;;8.05;;
17510;SDS011;8873;48.818;9.422;2022-08-20T00:34:27;11.65;;;7.38;;
17510;SDS011;8873;48.818;9.422;2022-08-20T00:37:00;11.30;;;7.60;;
17510;SDS011;8873;48.818;9.422;2022-08-20T00:39:28;16.88;;;10.43;;
17510;SDS011;8873;48.818;9.422;2022-08-20T00:41:55;15.48;;;9.95;;
17510;SDS011;8873;48.818;9.422;2022-08-20T00:44:23;14.80;;;10.90;;
17510;SDS011;8873;48.818;9.422;2022-08-20T00:46:51;18.52;;;11.05;;
17510;SDS011;8873;48.818;9.422;2022-08-20T00:49:20;16.52;;;10.95;;
17510;SDS011;8873;48.818;9.422;2022-08-20T00:51:51;19.77;;;11.88;;
17510;SDS011;8873;48.818;9.422;2022-08-20T00:54:21;16.25;;;11.32;;
17510;SDS011;8873;48.818;9.422;2022-08-20T00:56:51;18.27;;;11.85;;
17510;SDS011;8873;48.818;9.422;2022-08-20T00:59:22;16.63;;;11.90;;
17510;SDS011;8873;48.818;9.422;2022-08-20T01:01:50;18.25;;;12.00;;
17510;SDS011;8873;48.818;9.422;2022-08-20T01:04:22;15.85;;;10.95;;
17510;SDS011;8873;48.818;9.422;2022-08-20T01:06:50;16.63;;;11.15;;
17510;SDS011;8873;48.818;9.422;2022-08-20T01:09:18;17.02;;;11.55;;
17510;SDS011;8873;48.818;9.422;2022-08-20T01:12:07;18.48;;;10.68;;
17510;SDS011;8873;48.818;9.422;2022-08-20T01:14:35;17.38;;;10.75;;
17510;SDS011;8873;48.818;9.422;2022-08-20T01:17:09;16.58;;;10.07;;
17510;SDS011;8873;48.818;9.422;2022-08-20T01:19:43;15.30;;;10.13;;
17510;SDS011;8873;48.818;9.422;2022-08-20T01:22:12;16.10;;;10.00;;
17510;SDS011;8873;48.818;9.422;2022-08-20T01:25:00;18.33;;;10.25;;
17510;SDS011;8873;48.818;9.422;2022-08-20T01:27:32;13.57;;;8.18;;
17510;SDS011;8873;48.818;9.422;2022-08-20T01:30:08;12.55;;;8.18;;
17510;SDS011;8873;48.818;9.422;2022-08-20T01:32:40;13.70;;;8.30;;
17510;SDS011;8873;48.818;9.422;2022-08-20T01:35:07;14.70;;;9.98;;
17510;SDS011;8873;48.818;9.422;2022-08-20T01:37:36;10.75;;;6.78;;
17510;SDS011;8873;48.818;9.422;2022-08-20T01:40:04;12.35;;;6.68;;
17510;SDS011;8873;48.818;9.422;2022-08-20T01:42:36;11.73;;;6.68;;
17510;SDS011;8873;48.818;9.422;2022-08-20T01:45:25;8.07;;;5.63;;
17510;SDS011;8873;48.818;9.422;2022-08-20T01:47:56;12.05;;;8.43;;
17510;SDS011;8873;48.818;9.422;2022-08-20T01:50:26;12.18;;;8.13;;
17510;SDS011;8873;48.818;9.422;2022-08-20T01:52:56;14.27;;;9.82;;
17510;SDS011;8873;48.818;9.422;2022-08-20T01:55:25;18.00;;;9.35;;
17510;SDS011;8873;48.818;9.422;2022-08-20T01:57:54;19.67;;;11.52;;
17510;SDS011;8873;48.818;9.422;2022-08-20T02:00:23;16.23;;;10.50;;
17510;SDS011;8873;48.818;9.422;2022-08-20T02:02:50;20.13;;;11.63;;
17510;SDS011;8873;48.818;9.422;2022-08-20T02:05:18;19.85;;;10.93;;
17510;SDS011;8873;48.818;9.422;2022-08-20T02:07:47;14.45;;;9.82;;
17510;SDS011;8873;48.818;9.422;2022-08-20T02:10:15;18.73;;;10.25;;
17510;SDS011;8873;48.818;9.422;2022-08-20T02:12:43;12.98;;;8.63;;
17510;SDS011;8873;48.818;9.422;2022-08-20T02:15:13;17.77;;;9.90;;
17510;SDS011;8873;48.818;9.422;2022-08-20T02:17:42;14.52;;;9.48;;
17510;SDS011;8873;48.818;9.422;2022-08-20T02:20:10;13.50;;;9.00;;
17510;SDS011;8873;48.818;9.422;2022-08-20T02:22:41;17.33;;;9.98;;
17510;SDS011;8873;48.818;9.422;2022-08-20T02:25:16;21.75;;;11.98;;
17510;SDS011;8873;48.818;9.422;2022-08-20T02:27:45;23.30;;;13.00;;
17510;SDS011;8873;48.818;9.422;2022-08-20T02:30:16;27.45;;;14.55;;
17510;SDS011;8873;48.818;9.422;2022-08-20T02:32:53;27.10;;;14.98;;
17510;SDS011;8873;48.818;9.422;2022-08-20T02:35:21;29.02;;;15.32;;
17510;SDS011;8873;48.818;9.422;2022-08-20T02:37:49;29.27;;;15.73;;
17510;SDS011;8873;48.818;9.422;2022-08-20T02:40:18;34.97;;;18.40;;
17510;SDS011;8873;48.818;9.422;2022-08-20T02:42:56;36.53;;;18.02;;
17510;SDS011;8873;48.818;9.422;2022-08-20T02:45:25;39.38;;;19.80;;
17510;SDS011;8873;48.818;9.422;2022-08-20T02:47:54;38.85;;;19.50;;
17510;SDS011;8873;48.818;9.422;2022-08-20T02:50:23;45.00;;;20.25;;
17510;SDS011;8873;48.818;9.422;2022-08-20T02:52:52;40.00;;;19.38;;
17510;SDS011;8873;48.818;9.422;2022-08-20T02:55:21;43.58;;;21.52;;
17510;SDS011;8873;48.818;9.422;2022-08-20T02:57:53;41.60;;;19.77;;
17510;SDS011;8873;48.818;9.422;2022-08-20T03:00:26;45.97;;;20.05;;
17510;SDS011;8873;48.818;9.422;2022-08-20T03:02:57;42.60;;;20.17;;
17510;SDS011;8873;48.818;9.422;2022-08-20T03:05:25;53.60;;;20.92;;
17510;SDS011;8873;48.818;9.422;2022-08-20T03:07:53;40.50;;;20.00;;
17510;SDS011;8873;48.818;9.422;2022-08-20T03:10:22;43.38;;;21.35;;
17510;SDS011;8873;48.818;9.422;2022-08-20T03:12:51;41.03;;;19.40;;
17510;SDS011;8873;48.818;9.422;2022-08-20T03:15:20;47.13;;;20.55;;
17510;SDS011;8873;48.818;9.422;2022-08-20T03:17:49;40.40;;;19.58;;
17510;SDS011;8873;48.818;9.422;2022-08-20T03:20:17;39.47;;;19.02;;
17510;SDS011;8873;48.818;9.422;2022-08-20T03:22:49;42.58;;;19.67;;
17510;SDS011;8873;48.818;9.422;2022-08-20T03:25:17;41.67;;;19.98;;
17510;SDS011;8873;48.818;9.422;2022-08-20T03:27:45;36.13;;;18.42;;
17510;SDS011;8873;48.818;9.422;2022-08-20T03:30:19;36.20;;;18.30;;
17510;SDS011;8873;48.818;9.422;2022-08-20T03:32:48;44.20;;;19.05;;
17510;SDS011;8873;48.818;9.422;2022-08-20T03:35:17;45.35;;;20.70;;
17510;SDS011;8873;48.818;9.422;2022-08-20T03:37:45;68.28;;;21.08;;
17510;SDS011;8873;48.818;9.422;2022-08-20T03:40:15;58.45;;;19.92;;
17510;SDS011;8873;48.818;9.422;2022-08-20T03:42:43;44.95;;;19.23;;
17510;SDS011;8873;48.818;9.422;2022-08-20T03:45:11;49.47;;;21.77;;
17510;SDS011;8873;48.818;9.422;2022-08-20T03:47:48;47.78;;;18.55;;
17510;SDS011;8873;48.818;9.422;2022-08-20T03:50:22;40.20;;;18.00;;
17510;SDS011;8873;48.818;9.422;2022-08-20T03:52:50;37.83;;;16.67;;
17510;SDS011;8873;48.818;9.422;2022-08-20T03:55:18;40.08;;;16.70;;
17510;SDS011;8873;48.818;9.422;2022-08-20T03:57:47;38.45;;;17.40;;
17510;SDS011;8873;48.818;9.422;2022-08-20T04:00:19;40.95;;;18.17;;
17510;SDS011;8873;48.818;9.422;2022-08-20T04:02:48;35.15;;;16.48;;
17510;SDS011;8873;48.818;9.422;2022-08-20T04:05:16;36.70;;;16.60;;
17510;SDS011;8873;48.818;9.422;2022-08-20T04:07:45;45.58;;;19.10;;
17510;SDS011;8873;48.818;9.422;2022-08-20T04:10:13;43.05;;;18.92;;
17510;SDS011;8873;48.818;9.422;2022-08-20T04:12:40;40.25;;;19.58;;
17510;SDS011;8873;48.818;9.422;2022-08-20T04:15:18;37.90;;;18.80;;
17510;SDS011;8873;48.818;9.422;2022-08-20T04:17:48;34.63;;;17.70;;
17510;SDS011;8873;48.818;9.422;2022-08-20T04:20:17;33.95;;;17.58;;
17510;SDS011;8873;48.818;9.422;2022-08-20T04:22:49;33.35;;;17.20;;
17510;SDS011;8873;48.818;9.422;2022-08-20T04:25:24;35.85;;;18.52;;
17510;SDS011;8873;48.818;9.422;2022-08-20T04:27:52;38.10;;;18.88;;
17510;SDS011;8873;48.818;9.422;2022-08-20T04:30:21;37.97;;;17.60;;
17510;SDS011;8873;48.818;9.422;2022-08-20T04:32:51;36.00;;;18.50;;
17510;SDS011;8873;48.818;9.422;2022-08-20T04:35:21;33.92;;;17.45;;
17510;SDS011;8873;48.818;9.422;2022-08-20T04:37:58;37.10;;;17.73;;
17510;SDS011;8873;48.818;9.422;2022-08-20T04:40:26;33.80;;;17.95;;
17510;SDS011;8873;48.818;9.422;2022-08-20T04:43:11;33.90;;;17.33;;
17510;SDS011;8873;48.818;9.422;2022-08-20T04:48:07;34.47;;;18.10;;
17510;SDS011;8873;48.818;9.422;2022-08-20T04:50:41;36.17;;;18.27;;
17510;SDS011;8873;48.818;9.422;2022-08-20T04:53:11;30.63;;;17.10;;
17510;SDS011;8873;48.818;9.422;2022-08-20T04:55:41;30.92;;;17.00;;
17510;SDS011;8873;48.818;9.422;2022-08-20T04:58:10;31.77;;;17.02;;
17510;SDS011;8873;48.818;9.422;2022-08-20T05:00:38;30.52;;;16.90;;
17510;SDS011;8873;48.818;9.422;2022-08-20T05:03:06;35.45;;;18.52;;
17510;SDS011;8873;48.818;9.422;2022-08-20T05:05:34;33.58;;;17.77;;
17510;SDS011;8873;48.818;9.422;2022-08-20T05:08:02;35.65;;;18.75;;
17510;SDS011;8873;48.818;9.422;2022-08-20T05:10:46;34.25;;;18.67;;
17510;SDS011;8873;48.818;9.422;2022-08-20T05:13:21;33.83;;;18.13;;
17510;SDS011;8873;48.818;9.422;2022-08-20T05:15:52;34.97;;;18.25;;
17510;SDS011;8873;48.818;9.422;2022-08-20T05:18:23;32.65;;;17.63;;
17510;SDS011;8873;48.818;9.422;2022-08-20T05:20:51;28.58;;;15.40;;
17510;SDS011;8873;48.818;9.422;2022-08-20T05:23:19;28.58;;;15.07;;
17510;SDS011;8873;48.818;9.422;2022-08-20T05:25:50;23.10;;;14.05;;
17510;SDS011;8873;48.818;9.422;2022-08-20T05:28:19;22.55;;;13.95;;
17510;SDS011;8873;48.818;9.422;2022-08-20T05:30:47;21.63;;;13.35;;
17510;SDS011;8873;48.818;9.422;2022-08-20T05:33:15;19.40;;;12.18;;
17510;SDS011;8873;48.818;9.422;2022-08-20T05:35:45;19.83;;;11.90;;
17510;SDS011;8873;48.818;9.422;2022-08-20T05:38:15;22.23;;;12.52;;
17510;SDS011;8873;48.818;9.422;2022-08-20T05:40:43;22.13;;;13.38;;
17510;SDS011;8873;48.818;9.422;2022-08-20T05:43:13;26.67;;;14.15;;
17510;SDS011;8873;48.818;9.422;2022-08-20T05:45:44;22.25;;;13.45;;
17510;SDS011;8873;48.818;9.422;2022-08-20T05:48:13;18.15;;;12.48;;
17510;SDS011;8873;48.818;9.422;2022-08-20T05:50:47;29.60;;;13.43;;
17510;SDS011;8873;48.818;9.422;2022-08-20T05:53:16;20.42;;;12.93;;
17510;SDS011;8873;48.818;9.422;2022-08-20T05:55:45;19.48;;;12.98;;
17510;SDS011;8873;48.818;9.422;2022-08-20T05:58:15;19.40;;;12.77;;
17510;SDS011;8873;48.818;9.422;2022-08-20T06:00:45;20.75;;;13.27;;
17510;SDS011;8873;48.818;9.422;2022-08-20T06:03:13;21.17;;;13.38;;
17510;SDS011;8873;48.818;9.422;2022-08-20T06:05:59;22.05;;;13.00;;
17510;SDS011;8873;48.818;9.422;2022-08-20T06:08:27;17.17;;;12.45;;
17510;SDS011;8873;48.818;9.422;2022-08-20T06:10:55;17.77;;;11.63;;
17510;SDS011;8873;48.818;9.422;2022-08-20T06:13:27;17.83;;;12.32;;
17510;SDS011;8873;48.818;9.422;2022-08-20T06:15:56;17.70;;;12.25;;
17510;SDS011;8873;48.818;9.422;2022-08-20T06:18:32;22.55;;;12.63;;
17510;SDS011;8873;48.818;9.422;2022-08-20T06:21:00;19.90;;;12.07;;
17510;SDS011;8873;48.818;9.422;2022-08-20T06:23:27;17.65;;;12.05;;
17510;SDS011;8873;48.818;9.422;2022-08-20T06:26:17;16.00;;;11.45;;
17510;SDS011;8873;48.818;9.422;2022-08-20T06:29:00;15.75;;;11.18;;
17510;SDS011;8873;48.818;9.422;2022-08-20T06:31:28;15.13;;;10.80;;
17510;SDS011;8873;48.818;9.422;2022-08-20T06:33:55;16.17;;;10.40;;
17510;SDS011;8873;48.818;9.422;2022-08-20T06:36:23;12.52;;;9.90;;
17510;SDS011;8873;48.818;9.422;2022-08-20T06:38:51;14.93;;;10.38;;
17510;SDS011;8873;48.818;9.422;2022-08-20T06:41:20;11.95;;;9.95;;
17510;SDS011;8873;48.818;9.422;2022-08-20T06:44:03;10.38;;;8.48;;
17510;SDS011;8873;48.818;9.422;2022-08-20T06:46:32;11.10;;;7.88;;
17510;SDS011;8873;48.818;9.422;2022-08-20T06:49:01;10.07;;;8.45;;
17510;SDS011;8873;48.818;9.422;2022-08-20T06:51:29;9.70;;;8.15;;
17510;SDS011;8873;48.818;9.422;2022-08-20T06:53:57;9.48;;;7.68;;
17510;SDS011;8873;48.818;9.422;2022-08-20T06:56:26;9.77;;;8.02;;
17510;SDS011;8873;48.818;9.422;2022-08-20T06:58:54;10.57;;;8.05;;
17510;SDS011;8873;48.818;9.422;2022-08-20T07:01:23;9.27;;;7.10;;
17510;SDS011;8873;48.818;9.422;2022-08-20T07:03:51;13.23;;;6.78;;
17510;SDS011;8873;48.818;9.422;2022-08-20T07:06:21;8.88;;;6.13;;
17510;SDS011;8873;48.818;9.422;2022-08-20T07:08:51;7.47;;;6.70;;
17510;SDS011;8873;48.818;9.422;2022-08-20T07:11:18;10.05;;;6.85;;
17510;SDS011;8873;48.818;9.422;2022-08-20T07:13:53;9.25;;;6.82;;
17510;SDS011;8873;48.818;9.422;2022-08-20T07:16:22;8.13;;;6.80;;
17510;SDS011;8873;48.818;9.422;2022-08-20T07:18:51;7.43;;;6.65;;
17510;SDS011;8873;48.818;9.422;2022-08-20T07:21:19;9.55;;;6.72;;
17510;SDS011;8873;48.818;9.422;2022-08-20T07:23:48;8.23;;;7.07;;
17510;SDS011;8873;48.818;9.422;2022-08-20T07:26:16;8.55;;;6.93;;
17510;SDS011;8873;48.818;9.422;2022-08-20T07:28:44;10.05;;;7.88;;
17510;SDS011;8873;48.818;9.422;2022-08-20T07:31:12;12.38;;;7.57;;
17510;SDS011;8873;48.818;9.422;2022-08-20T07:34:01;8.48;;;6.75;;
17510;SDS011;8873;48.818;9.422;2022-08-20T07:36:30;10.38;;;7.65;;
17510;SDS011;8873;48.818;9.422;2022-08-20T07:38:58;13.30;;;8.13;;
17510;SDS011;8873;48.818;9.422;2022-08-20T07:41:31;13.07;;;8.35;;
17510;SDS011;8873;48.818;9.422;2022-08-20T07:43:59;15.60;;;8.75;;
17510;SDS011;8873;48.818;9.422;2022-08-20T07:46:27;13.20;;;8.32;;
17510;SDS011;8873;48.818;9.422;2022-08-20T07:48:57;14.80;;;8.02;;
17510;SDS011;8873;48.818;9.422;2022-08-20T07:51:30;12.45;;;8.23;;
17510;SDS011;8873;48.818;9.422;2022-08-20T07:53:59;13.57;;;8.40;;
17510;SDS011;8873;48.818;9.422;2022-08-20T07:56:26;9.60;;;7.97;;
17510;SDS011;8873;48.818;9.422;2022-08-20T07:58:58;9.75;;;7.72;;
17510;SDS011;8873;48.818;9.422;2022-08-20T08:01:29;10.75;;;7.60;;
17510;SDS011;8873;48.818;9.422;2022-08-20T08:04:18;10.82;;;7.90;;
17510;SDS011;8873;48.818;9.422;2022-08-20T08:07:18;10.57;;;8.35;;
17510;SDS011;8873;48.818;9.422;2022-08-20T08:09:51;13.55;;;8.18;;
17510;SDS011;8873;48.818;9.422;2022-08-20T08:12:37;11.45;;;8.40;;
17510;SDS011;8873;48.818;9.422;2022-08-20T08:15:08;13.68;;;8.88;;
17510;SDS011;8873;48.818;9.422;2022-08-20T08:17:36;11.00;;;7.88;;
17510;SDS011;8873;48.818;9.422;2022-08-20T08:20:06;8.63;;;6.95;;
17510;SDS011;8873;48.818;9.422;2022-08-20T08:22:36;8.85;;;6.82;;
17510;SDS011;8873;48.818;9.422;2022-08-20T08:25:08;7.28;;;6.38;;
17510;SDS011;8873;48.818;9.422;2022-08-20T08:27:36;9.30;;;6.28;;
17510;SDS011;8873;48.818;9.422;2022-08-20T08:30:04;7.55;;;6.20;;
17510;SDS011;8873;48.818;9.422;2022-08-20T08:32:33;7.65;;;5.95;;
17510;SDS011;8873;48.818;9.422;2022-08-20T08:35:02;7.88;;;4.88;;
17510;SDS011;8873;48.818;9.422;2022-08-20T08:37:31;5.95;;;4.95;;
17510;SDS011;8873;48.818;9.422;2022-08-20T08:40:00;5.47;;;4.95;;
17510;SDS011;8873;48.818;9.422;2022-08-20T08:42:33;5.35;;;4.30;;
17510;SDS011;8873;48.818;9.422;2022-08-20T08:45:07;8.02;;;5.00;;
17510;SDS011;8873;48.818;9.422;2022-08-20T08:47:36;5.47;;;4.97;;
17510;SDS011;8873;48.818;9.422;2022-08-20T08:50:04;5.85;;;4.97;;
17510;SDS011;8873;48.818;9.422;2022-08-20T08:52:33;9.90;;;4.45;;
17510;SDS011;8873;48.818;9.422;2022-08-20T08:55:04;5.20;;;4.70;;
17510;SDS011;8873;48.818;9.422;2022-08-20T08:57:32;4.85;;;4.10;;
17510;SDS011;8873;48.818;9.422;2022-08-20T09:00:00;5.35;;;4.45;;
17510;SDS011;8873;48.818;9.422;2022-08-20T09:02:31;6.35;;;4.75;;
17510;SDS011;8873;48.818;9.422;2022-08-20T09:04:59;6.22;;;4.07;;
17510;SDS011;8873;48.818;9.422;2022-08-20T09:07:30;4.70;;;4.30;;
17510;SDS011;8873;48.818;9.422;2022-08-20T09:09:59;6.03;;;4.45;;
17510;SDS011;8873;48.818;9.422;2022-08-20T09:12:36;6.18;;;4.15;;
17510;SDS011;8873;48.818;9.422;2022-08-20T09:15:10;9.60;;;4.57;;
17510;SDS011;8873;48.818;9.422;2022-08-20T09:17:40;5.75;;;4.63;;
17510;SDS011;8873;48.818;9.422;2022-08-20T09:20:08;7.25;;;5.50;;
17510;SDS011;8873;48.818;9.422;2022-08-20T09:22:35;6.55;;;5.82;;
17510;SDS011;8873;48.818;9.422;2022-08-20T09:25:03;7.30;;;5.80;;
17510;SDS011;8873;48.818;9.422;2022-08-20T09:27:31;7.03;;;5.15;;
17510;SDS011;8873;48.818;9.422;2022-08-20T09:30:00;7.20;;;4.90;;
17510;SDS011;8873;48.818;9.422;2022-08-20T09:32:27;8.32;;;5.45;;
17510;SDS011;8873;48.818;9.422;2022-08-20T09:37:57;9.45;;;5.50;;
17510;SDS011;8873;48.818;9.422;2022-08-20T09:40:39;8.48;;;5.45;;
17510;SDS011;8873;48.818;9.422;2022-08-20T09:43:07;9.40;;;5.35;;
17510;SDS011;8873;48.818;9.422;2022-08-20T09:45:46;6.32;;;4.80;;
17510;SDS011;8873;48.818;9.422;2022-08-20T09:48:20;6.35;;;5.00;;
17510;SDS011;8873;48.818;9.422;2022-08-20T09:50:57;5.85;;;4.38;;
17510;SDS011;8873;48.818;9.422;2022-08-20T09:53:25;5.78;;;4.88;;
17510;SDS011;8873;48.818;9.422;2022-08-20T09:55:53;5.68;;;4.40;;
17510;SDS011;8873;48.818;9.422;2022-08-20T09:58:22;5.28;;;4.78;;
17510;SDS011;8873;48.818;9.422;2022-08-20T10:00:52;6.13;;;4.35;;
17510;SDS011;8873;48.818;9.422;2022-08-20T10:03:19;6.60;;;4.72;;
17510;SDS011;8873;48.818;9.422;2022-08-20T10:05:47;6.45;;;4.68;;
17510;SDS011;8873;48.818;9.422;2022-08-20T10:08:14;5.40;;;4.68;;
17510;SDS011;8873;48.818;9.422;2022-08-20T10:10:42;6.60;;;4.93;;
17510;SDS011;8873;48.818;9.422;2022-08-20T10:13:13;6.30;;;5.70;;
17510;SDS011;8873;48.818;9.422;2022-08-20T10:15:41;9.57;;;5.50;;
17510;SDS011;8873;48.818;9.422;2022-08-20T10:18:11;6.50;;;5.72;;
17510;SDS011;8873;48.818;9.422;2022-08-20T10:20:39;7.50;;;4.90;;
17510;SDS011;8873;48.818;9.422;2022-08-20T10:23:07;9.70;;;5.57;;
17510;SDS011;8873;48.818;9.422;2022-08-20T10:25:40;4.57;;;3.75;;
17510;SDS011;8873;48.818;9.422;2022-08-20T10:28:08;3.30;;;3.00;;
17510;SDS011;8873;48.818;9.422;2022-08-20T10:30:35;3.67;;;3.38;;
17510;SDS011;8873;48.818;9.422;2022-08-20T10:35:55;4.68;;;3.58;;
17510;SDS011;8873;48.818;9.422;2022-08-20T10:38:25;3.50;;;3.30;;
17510;SDS011;8873;48.818;9.422;2022-08-20T10:40:54;4.78;;;3.50;;
17510;SDS011;8873;48.818;9.422;2022-08-20T10:43:21;4.45;;;3.38;;
17510;SDS011;8873;48.818;9.422;2022-08-20T10:45:49;4.82;;;3.10;;
17510;SDS011;8873;48.818;9.422;2022-08-20T10:48:17;5.55;;;3.10;;
17510;SDS011;8873;48.818;9.422;2022-08-20T10:50:47;3.50;;;3.20;;
17510;SDS011;8873;48.818;9.422;2022-08-20T10:53:16;3.88;;;3.58;;
17510;SDS011;8873;48.818;9.422;2022-08-20T10:55:43;4.55;;;2.97;;
17510;SDS011;8873;48.818;9.422;2022-08-20T10:58:11;3.85;;;2.85;;
17510;SDS011;8873;48.818;9.422;2022-08-20T11:00:39;2.95;;;2.75;;
17510;SDS011;8873;48.818;9.422;2022-08-20T11:03:09;3.90;;;3.60;;
17510;SDS011;8873;48.818;9.422;2022-08-20T11:05:40;3.33;;;3.03;;
17510;SDS011;8873;48.818;9.422;2022-08-20T11:08:07;5.18;;;3.50;;
17510;SDS011;8873;48.818;9.422;2022-08-20T11:10:36;6.38;;;3.85;;
17510;SDS011;8873;48.818;9.422;2022-08-20T11:13:07;10.27;;;3.88;;
17510;SDS011;8873;48.818;9.422;2022-08-20T11:15:41;4.05;;;3.65;;
17510;SDS011;8873;48.818;9.422;2022-08-20T11:18:09;4.60;;;3.13;;
17510;SDS011;8873;48.818;9.422;2022-08-20T11:20:38;4.28;;;3.25;;
17510;SDS011;8873;48.818;9.422;2022-08-20T11:23:05;6.35;;;3.38;;
17510;SDS011;8873;48.818;9.422;2022-08-20T11:25:33;3.60;;;3.30;;
17510;SDS011;8873;48.818;9.422;2022-08-20T11:28:02;4.47;;;3.45;;
17510;SDS011;8873;48.818;9.422;2022-08-20T11:30:31;4.03;;;3.42;;
17510;SDS011;8873;48.818;9.422;2022-08-20T11:32:59;3.33;;;3.03;;
17510;SDS011;8873;48.818;9.422;2022-08-20T11:35:27;3.20;;;3.00;;
17510;SDS011;8873;48.818;9.422;2022-08-20T11:38:15;3.13;;;2.92;;
17510;SDS011;8873;48.818;9.422;2022-08-20T11:40:43;3.30;;;3.08;;
17510;SDS011;8873;48.818;9.422;2022-08-20T11:43:13;14.88;;;3.70;;
17510;SDS011;8873;48.818;9.422;2022-08-20T11:45:43;3.97;;;3.67;;
17510;SDS011;8873;48.818;9.422;2022-08-20T11:48:10;4.15;;;3.80;;
17510;SDS011;8873;48.818;9.422;2022-08-20T11:50:40;4.00;;;3.00;;
17510;SDS011;8873;48.818;9.422;2022-08-20T11:53:08;3.15;;;2.90;;
17510;SDS011;8873;48.818;9.422;2022-08-20T11:55:36;2.55;;;2.45;;
17510;SDS011;8873;48.818;9.422;2022-08-20T11:58:05;3.40;;;3.10;;
17510;SDS011;8873;48.818;9.422;2022-08-20T12:00:35;3.38;;;2.95;;
17510;SDS011;8873;48.818;9.422;2022-08-20T12:03:04;5.63;;;3.00;;
17510;SDS011;8873;48.818;9.422;2022-08-20T12:05:34;3.70;;;3.40;;
17510;SDS011;8873;48.818;9.422;2022-08-20T12:08:05;3.50;;;3.20;;
17510;SDS011;8873;48.818;9.422;2022-08-20T12:10:33;3.30;;;2.75;;
17510;SDS011;8873;48.818;9.422;2022-08-20T12:13:01;3.50;;;2.55;;
17510;SDS011;8873;48.818;9.422;2022-08-20T12:15:30;10.90;;;5.50;;
17510;SDS011;8873;48.818;9.422;2022-08-20T12:17:59;8.57;;;4.55;;
17510;SDS011;8873;48.818;9.422;2022-08-20T12:20:28;3.00;;;2.80;;
17510;SDS011;8873;48.818;9.422;2022-08-20T12:22:56;5.18;;;3.58;;
17510;SDS011;8873;48.818;9.422;2022-08-20T12:25:27;99.75;;;56.75;;
17510;SDS011;8873;48.818;9.422;2022-08-20T12:27:56;18.33;;;6.40;;
17510;SDS011;8873;48.818;9.422;2022-08-20T12:30:24;18.98;;;7.70;;
17510;SDS011;8873;48.818;9.422;2022-08-20T12:32:52;8.30;;;4.93;;
17510;SDS011;8873;48.818;9.422;2022-08-20T12:35:21;5.82;;;3.90;;
17510;SDS011;8873;48.818;9.422;2022-08-20T12:37:49;7.32;;;3.58;;
17510;SDS011;8873;48.818;9.422;2022-08-20T12:40:17;7.35;;;3.65;;
17510;SDS011;8873;48.818;9.422;2022-08-20T12:42:58;7.28;;;3.95;;
17510;SDS011;8873;48.818;9.422;2022-08-20T12:45:25;11.30;;;5.78;;
17510;SDS011;8873;48.818;9.422;2022-08-20T12:48:01;8.68;;;5.45;;
17510;SDS011;8873;48.818;9.422;2022-08-20T12:50:31;5.25;;;4.82;;
17510;SDS011;8873;48.818;9.422;2022-08-20T12:52:59;7.63;;;5.47;;
17510;SDS011;8873;48.818;9.422;2022-08-20T12:55:27;9.10;;;6.65;;
17510;SDS011;8873;48.818;9.422;2022-08-20T12:57:56;10.30;;;8.75;;
17510;SDS011;8873;48.818;9.422;2022-08-20T13:00:26;13.00;;;9.48;;
17510;SDS011;8873;48.818;9.422;2022-08-20T13:02:56;18.52;;;11.10;;
17510;SDS011;8873;48.818;9.422;2022-08-20T13:05:26;10.65;;;6.18;;
17510;SDS011;8873;48.818;9.422;2022-08-20T13:07:55;12.00;;;7.10;;
17510;SDS011;8873;48.818;9.422;2022-08-20T13:10:25;8.85;;;6.68;;
17510;SDS011;8873;48.818;9.422;2022-08-20T13:12:58;7.93;;;5.22;;
17510;SDS011;8873;48.818;9.422;2022-08-20T13:15:30;9.82;;;6.55;;
17510;SDS011;8873;48.818;9.422;2022-08-20T13:18:04;5.93;;;5.38;;
17510;SDS011;8873;48.818;9.422;2022-08-20T13:20:37;7.03;;;5.93;;
17510;SDS011;8873;48.818;9.422;2022-08-20T13:23:09;16.40;;;11.65;;
17510;SDS011;8873;48.818;9.422;2022-08-20T13:25:39;10.63;;;5.32;;
17510;SDS011;8873;48.818;9.422;2022-08-20T13:28:12;10.15;;;6.30;;
17510;SDS011;8873;48.818;9.422;2022-08-20T13:31:02;8.93;;;5.85;;
17510;SDS011;8873;48.818;9.422;2022-08-20T13:33:30;6.28;;;5.20;;
17510;SDS011;8873;48.818;9.422;2022-08-20T13:35:57;8.00;;;5.78;;
17510;SDS011;8873;48.818;9.422;2022-08-20T13:38:29;12.80;;;5.88;;
17510;SDS011;8873;48.818;9.422;2022-08-20T13:40:57;13.95;;;7.40;;
17510;SDS011;8873;48.818;9.422;2022-08-20T13:43:24;8.43;;;5.38;;
17510;SDS011;8873;48.818;9.422;2022-08-20T13:45:52;7.18;;;6.30;;
17510;SDS011;8873;48.818;9.422;2022-08-20T13:48:20;6.88;;;6.18;;
17510;SDS011;8873;48.818;9.422;2022-08-20T13:50:47;8.10;;;6.15;;
17510;SDS011;8873;48.818;9.422;2022-08-20T13:53:15;6.32;;;4.97;;
17510;SDS011;8873;48.818;9.422;2022-08-20T13:55:45;5.03;;;3.38;;
17510;SDS011;8873;48.818;9.422;2022-08-20T13:58:12;6.10;;;3.80;;
17510;SDS011;8873;48.818;9.422;2022-08-20T14:00:40;4.78;;;3.92;;
17510;SDS011;8873;48.818;9.422;2022-08-20T14:03:08;6.95;;;4.22;;
17510;SDS011;8873;48.818;9.422;2022-08-20T14:05:36;5.30;;;4.60;;
17510;SDS011;8873;48.818;9.422;2022-08-20T14:08:05;5.22;;;4.80;;
17510;SDS011;8873;48.818;9.422;2022-08-20T14:10:33;6.18;;;5.57;;
17510;SDS011;8873;48.818;9.422;2022-08-20T14:13:03;7.53;;;5.00;;
17510;SDS011;8873;48.818;9.422;2022-08-20T14:15:32;6.53;;;5.45;;
17510;SDS011;8873;48.818;9.422;2022-08-20T14:18:00;11.13;;;5.55;;
17510;SDS011;8873;48.818;9.422;2022-08-20T14:20:29;9.10;;;5.55;;
17510;SDS011;8873;48.818;9.422;2022-08-20T14:22:58;7.97;;;5.35;;
17510;SDS011;8873;48.818;9.422;2022-08-20T14:25:26;6.13;;;4.95;;
17510;SDS011;8873;48.818;9.422;2022-08-20T14:27:55;5.15;;;4.70;;
17510;SDS011;8873;48.818;9.422;2022-08-20T14:30:26;10.18;;;5.45;;
17510;SDS011;8873;48.818;9.422;2022-08-20T14:32:54;8.40;;;4.90;;
17510;SDS011;8873;48.818;9.422;2022-08-20T14:35:22;9.45;;;4.75;;
17510;SDS011;8873;48.818;9.422;2022-08-20T14:37:50;7.07;;;4.90;;
17510;SDS011;8873;48.818;9.422;2022-08-20T14:40:19;5.15;;;4.57;;
17510;SDS011;8873;48.818;9.422;2022-08-20T14:42:47;4.13;;;3.65;;
17510;SDS011;8873;48.818;9.422;2022-08-20T14:45:20;7.00;;;3.30;;
17510;SDS011;8873;48.818;9.422;2022-08-20T14:47:51;2.00;;;1.90;;
17510;SDS011;8873;48.818;9.422;2022-08-20T14:50:21;1.77;;;1.67;;
17510;SDS011;8873;48.818;9.422;2022-08-20T14:52:50;3.97;;;1.70;;
17510;SDS011;8873;48.818;9.422;2022-08-20T14:55:19;2.88;;;1.60;;
17510;SDS011;8873;48.818;9.422;2022-08-20T14:57:47;1.38;;;1.38;;
17510;SDS011;8873;48.818;9.422;2022-08-20T15:00:15;2.85;;;1.50;;
17510;SDS011;8873;48.818;9.422;2022-08-20T15:02:44;1.40;;;1.40;;
17510;SDS011;8873;48.818;9.422;2022-08-20T15:05:14;4.50;;;1.80;;
17510;SDS011;8873;48.818;9.422;2022-08-20T15:07:43;3.30;;;1.70;;
17510;SDS011;8873;48.818;9.422;2022-08-20T15:10:13;2.58;;;1.70;;
17510;SDS011;8873;48.818;9.422;2022-08-20T15:12:42;1.58;;;1.48;;
17510;SDS011;8873;48.818;9.422;2022-08-20T15:15:11;1.85;;;1.77;;